sensor_id;sensor_type;location;lat;lon;timestamp;P1;durP1;ratioP1;P2;durP2;ratioP2
19653;SDS011;9975;48.046;7.804;2023-03-01T01:56:55;12.73;;;6.78;;
19653;SDS011;9975;48.046;7.804;2023-03-01T01:59:26;14.57;;;7.22;;
19653;SDS011;9975;48.046;7.804;2023-03-01T02:01:52;17.70;;;8.60;;
19653;SDS011;9975;48.046;7.804;2023-03-01T02:04:19;14.35;;;7.90;;
19653;SDS011;9975;48.046;7.804;2023-03-01T02:07:07;14.75;;;9.38;;
19653;SDS011;9975;48.046;7.804;2023-03-01T02:09:46;14.60;;;7.72;;
19653;SDS011;9975;48.046;7.804;2023-03-01T02:12:14;14.48;;;7.20;;
19653;SDS011;9975;48.046;7.804;2023-03-01T02:14:42;17.23;;;9.55;;
19653;SDS011;9975;48.046;7.804;2023-03-01T02:17:09;15.60;;;7.65;;
19653;SDS011;9975;48.046;7.804;2023-03-01T02:20:00;16.95;;;7.72;;
19653;SDS011;9975;48.046;7.804;2023-03-01T02:22:37;22.52;;;9.95;;
19653;SDS011;9975;48.046;7.804;2023-03-01T02:28:23;14.50;;;8.07;;
19653;SDS011;9975;48.046;7.804;2023-03-01T02:30:54;17.08;;;8.48;;
19653;SDS011;9975;48.046;7.804;2023-03-01T02:33:38;14.45;;;7.78;;
19653;SDS011;9975;48.046;7.804;2023-03-01T02:36:06;14.47;;;7.53;;
19653;SDS011;9975;48.046;7.804;2023-03-01T02:38:39;15.65;;;8.43;;
19653;SDS011;9975;48.046;7.804;2023-03-01T02:41:06;17.25;;;9.50;;
19653;SDS011;9975;48.046;7.804;2023-03-01T02:43:33;18.30;;;9.07;;
19653;SDS011;9975;48.046;7.804;2023-03-01T02:46:07;14.85;;;8.23;;
19653;SDS011;9975;48.046;7.804;2023-03-01T02:48:40;14.13;;;8.10;;
19653;SDS011;9975;48.046;7.804;2023-03-01T02:51:14;18.40;;;9.38;;
19653;SDS011;9975;48.046;7.804;2023-03-01T02:53:53;17.52;;;9.15;;
19653;SDS011;9975;48.046;7.804;2023-03-01T02:56:20;26.15;;;10.13;;
19653;SDS011;9975;48.046;7.804;2023-03-01T02:58:46;23.13;;;10.20;;
19653;SDS011;9975;48.046;7.804;2023-03-01T03:01:16;17.40;;;9.23;;
19653;SDS011;9975;48.046;7.804;2023-03-01T03:03:42;18.90;;;10.27;;
19653;SDS011;9975;48.046;7.804;2023-03-01T03:06:08;20.53;;;10.57;;
19653;SDS011;9975;48.046;7.804;2023-03-01T03:08:34;18.92;;;8.82;;
19653;SDS011;9975;48.046;7.804;2023-03-01T03:11:00;16.53;;;8.20;;
19653;SDS011;9975;48.046;7.804;2023-03-01T03:13:25;22.30;;;10.00;;
19653;SDS011;9975;48.046;7.804;2023-03-01T03:15:53;17.23;;;9.38;;
19653;SDS011;9975;48.046;7.804;2023-03-01T03:18:20;16.90;;;8.95;;
19653;SDS011;9975;48.046;7.804;2023-03-01T03:20:46;17.90;;;8.63;;
19653;SDS011;9975;48.046;7.804;2023-03-01T03:23:17;19.23;;;8.93;;
19653;SDS011;9975;48.046;7.804;2023-03-01T03:25:43;18.07;;;8.67;;
19653;SDS011;9975;48.046;7.804;2023-03-01T03:28:10;17.10;;;8.68;;
19653;SDS011;9975;48.046;7.804;2023-03-01T03:30:37;23.73;;;8.67;;
19653;SDS011;9975;48.046;7.804;2023-03-01T03:33:04;23.42;;;8.98;;
19653;SDS011;9975;48.046;7.804;2023-03-01T03:35:44;16.05;;;9.18;;
19653;SDS011;9975;48.046;7.804;2023-03-01T03:38:12;15.48;;;8.30;;
19653;SDS011;9975;48.046;7.804;2023-03-01T03:40:46;17.70;;;9.88;;
19653;SDS011;9975;48.046;7.804;2023-03-01T03:43:14;25.80;;;11.05;;
19653;SDS011;9975;48.046;7.804;2023-03-01T03:45:43;18.67;;;9.80;;
19653;SDS011;9975;48.046;7.804;2023-03-01T03:48:10;18.08;;;8.75;;
19653;SDS011;9975;48.046;7.804;2023-03-01T03:50:36;18.30;;;9.07;;
19653;SDS011;9975;48.046;7.804;2023-03-01T03:53:06;25.23;;;10.23;;
19653;SDS011;9975;48.046;7.804;2023-03-01T03:55:33;15.45;;;7.78;;
19653;SDS011;9975;48.046;7.804;2023-03-01T03:58:02;13.30;;;8.10;;
19653;SDS011;9975;48.046;7.804;2023-03-01T04:00:31;18.90;;;9.35;;
19653;SDS011;9975;48.046;7.804;2023-03-01T04:02:59;16.27;;;8.73;;
19653;SDS011;9975;48.046;7.804;2023-03-01T04:05:25;21.38;;;9.40;;
19653;SDS011;9975;48.046;7.804;2023-03-01T04:07:52;19.55;;;9.50;;
19653;SDS011;9975;48.046;7.804;2023-03-01T04:10:26;17.40;;;8.43;;
19653;SDS011;9975;48.046;7.804;2023-03-01T04:12:52;18.42;;;8.88;;
19653;SDS011;9975;48.046;7.804;2023-03-01T04:15:18;16.00;;;8.80;;
19653;SDS011;9975;48.046;7.804;2023-03-01T04:17:44;17.30;;;9.43;;
19653;SDS011;9975;48.046;7.804;2023-03-01T04:20:15;19.13;;;9.50;;
19653;SDS011;9975;48.046;7.804;2023-03-01T04:22:43;22.30;;;8.18;;
19653;SDS011;9975;48.046;7.804;2023-03-01T04:25:12;14.10;;;8.02;;
19653;SDS011;9975;48.046;7.804;2023-03-01T04:27:39;18.02;;;8.20;;
19653;SDS011;9975;48.046;7.804;2023-03-01T04:30:05;22.48;;;9.80;;
19653;SDS011;9975;48.046;7.804;2023-03-01T04:32:32;26.98;;;9.80;;
19653;SDS011;9975;48.046;7.804;2023-03-01T04:34:57;13.87;;;8.47;;
19653;SDS011;9975;48.046;7.804;2023-03-01T04:37:23;12.63;;;7.93;;
19653;SDS011;9975;48.046;7.804;2023-03-01T04:39:50;20.88;;;8.80;;
19653;SDS011;9975;48.046;7.804;2023-03-01T04:42:15;17.67;;;8.67;;
19653;SDS011;9975;48.046;7.804;2023-03-01T04:44:41;16.07;;;7.87;;
19653;SDS011;9975;48.046;7.804;2023-03-01T04:47:08;20.95;;;9.77;;
19653;SDS011;9975;48.046;7.804;2023-03-01T04:49:33;25.60;;;10.93;;
19653;SDS011;9975;48.046;7.804;2023-03-01T04:51:59;21.97;;;10.70;;
19653;SDS011;9975;48.046;7.804;2023-03-01T04:54:27;16.92;;;8.77;;
19653;SDS011;9975;48.046;7.804;2023-03-01T04:56:53;21.15;;;10.50;;
19653;SDS011;9975;48.046;7.804;2023-03-01T04:59:19;15.48;;;8.68;;
19653;SDS011;9975;48.046;7.804;2023-03-01T05:01:47;18.38;;;8.90;;
19653;SDS011;9975;48.046;7.804;2023-03-01T05:04:13;15.30;;;9.60;;
19653;SDS011;9975;48.046;7.804;2023-03-01T05:06:39;15.30;;;9.00;;
19653;SDS011;9975;48.046;7.804;2023-03-01T05:09:05;18.03;;;9.77;;
19653;SDS011;9975;48.046;7.804;2023-03-01T05:11:31;21.90;;;8.17;;
19653;SDS011;9975;48.046;7.804;2023-03-01T05:14:00;22.48;;;10.95;;
19653;SDS011;9975;48.046;7.804;2023-03-01T05:16:27;25.52;;;12.10;;
19653;SDS011;9975;48.046;7.804;2023-03-01T05:18:53;24.70;;;10.50;;
19653;SDS011;9975;48.046;7.804;2023-03-01T05:21:20;19.88;;;10.07;;
19653;SDS011;9975;48.046;7.804;2023-03-01T05:23:46;16.13;;;8.85;;
19653;SDS011;9975;48.046;7.804;2023-03-01T05:26:12;19.43;;;9.13;;
19653;SDS011;9975;48.046;7.804;2023-03-01T05:28:37;19.47;;;9.97;;
19653;SDS011;9975;48.046;7.804;2023-03-01T05:31:04;24.38;;;10.50;;
19653;SDS011;9975;48.046;7.804;2023-03-01T05:33:35;20.50;;;9.45;;
19653;SDS011;9975;48.046;7.804;2023-03-01T05:36:02;19.35;;;10.07;;
19653;SDS011;9975;48.046;7.804;2023-03-01T05:38:27;17.13;;;8.20;;
19653;SDS011;9975;48.046;7.804;2023-03-01T05:40:53;15.90;;;9.47;;
19653;SDS011;9975;48.046;7.804;2023-03-01T05:43:18;23.80;;;10.73;;
19653;SDS011;9975;48.046;7.804;2023-03-01T05:45:44;19.63;;;10.40;;
19653;SDS011;9975;48.046;7.804;2023-03-01T05:48:10;19.67;;;9.50;;
19653;SDS011;9975;48.046;7.804;2023-03-01T05:50:38;18.70;;;9.63;;
19653;SDS011;9975;48.046;7.804;2023-03-01T05:53:07;20.98;;;10.18;;
19653;SDS011;9975;48.046;7.804;2023-03-01T05:55:38;16.20;;;9.50;;
19653;SDS011;9975;48.046;7.804;2023-03-01T05:58:06;17.55;;;9.07;;
19653;SDS011;9975;48.046;7.804;2023-03-01T06:00:34;20.45;;;9.52;;
19653;SDS011;9975;48.046;7.804;2023-03-01T06:03:00;17.70;;;9.50;;
19653;SDS011;9975;48.046;7.804;2023-03-01T06:05:26;16.20;;;8.95;;
19653;SDS011;9975;48.046;7.804;2023-03-01T06:07:53;18.17;;;9.35;;
19653;SDS011;9975;48.046;7.804;2023-03-01T06:10:19;15.50;;;9.57;;
19653;SDS011;9975;48.046;7.804;2023-03-01T06:12:46;23.30;;;9.85;;
19653;SDS011;9975;48.046;7.804;2023-03-01T06:15:13;20.80;;;11.20;;
19653;SDS011;9975;48.046;7.804;2023-03-01T06:17:42;21.73;;;9.02;;
19653;SDS011;9975;48.046;7.804;2023-03-01T06:22:36;17.75;;;9.60;;
19653;SDS011;9975;48.046;7.804;2023-03-01T06:25:02;25.07;;;9.97;;
19653;SDS011;9975;48.046;7.804;2023-03-01T06:27:28;14.63;;;8.88;;
19653;SDS011;9975;48.046;7.804;2023-03-01T06:29:54;20.40;;;9.20;;
19653;SDS011;9975;48.046;7.804;2023-03-01T06:32:20;17.33;;;10.25;;
19653;SDS011;9975;48.046;7.804;2023-03-01T06:34:45;17.47;;;9.00;;
19653;SDS011;9975;48.046;7.804;2023-03-01T06:37:11;23.73;;;9.77;;
19653;SDS011;9975;48.046;7.804;2023-03-01T06:39:37;16.63;;;7.83;;
19653;SDS011;9975;48.046;7.804;2023-03-01T06:42:03;16.33;;;9.33;;
19653;SDS011;9975;48.046;7.804;2023-03-01T06:44:31;24.42;;;9.00;;
19653;SDS011;9975;48.046;7.804;2023-03-01T06:46:56;17.80;;;9.93;;
19653;SDS011;9975;48.046;7.804;2023-03-01T06:49:22;16.13;;;8.57;;
19653;SDS011;9975;48.046;7.804;2023-03-01T06:51:47;19.37;;;9.13;;
19653;SDS011;9975;48.046;7.804;2023-03-01T06:54:13;16.90;;;9.07;;
19653;SDS011;9975;48.046;7.804;2023-03-01T06:56:39;16.37;;;8.37;;
19653;SDS011;9975;48.046;7.804;2023-03-01T06:59:04;22.80;;;11.13;;
19653;SDS011;9975;48.046;7.804;2023-03-01T07:01:30;32.97;;;13.57;;
19653;SDS011;9975;48.046;7.804;2023-03-01T07:03:56;25.43;;;10.90;;
19653;SDS011;9975;48.046;7.804;2023-03-01T07:06:22;21.17;;;9.30;;
19653;SDS011;9975;48.046;7.804;2023-03-01T07:08:48;13.95;;;8.63;;
19653;SDS011;9975;48.046;7.804;2023-03-01T07:11:13;21.77;;;9.37;;
19653;SDS011;9975;48.046;7.804;2023-03-01T07:13:39;17.77;;;9.10;;
19653;SDS011;9975;48.046;7.804;2023-03-01T07:16:05;15.40;;;8.77;;
19653;SDS011;9975;48.046;7.804;2023-03-01T07:18:31;15.35;;;8.80;;
19653;SDS011;9975;48.046;7.804;2023-03-01T07:20:57;20.10;;;8.93;;
19653;SDS011;9975;48.046;7.804;2023-03-01T07:23:22;15.33;;;8.17;;
19653;SDS011;9975;48.046;7.804;2023-03-01T07:25:51;16.20;;;8.33;;
19653;SDS011;9975;48.046;7.804;2023-03-01T07:28:18;21.35;;;10.50;;
19653;SDS011;9975;48.046;7.804;2023-03-01T07:30:44;16.70;;;7.87;;
19653;SDS011;9975;48.046;7.804;2023-03-01T07:33:09;16.47;;;9.30;;
19653;SDS011;9975;48.046;7.804;2023-03-01T07:35:35;14.83;;;9.57;;
19653;SDS011;9975;48.046;7.804;2023-03-01T07:38:01;19.10;;;8.60;;
19653;SDS011;9975;48.046;7.804;2023-03-01T07:40:26;19.23;;;8.90;;
19653;SDS011;9975;48.046;7.804;2023-03-01T07:42:55;15.60;;;8.53;;
19653;SDS011;9975;48.046;7.804;2023-03-01T07:45:22;17.65;;;8.23;;
19653;SDS011;9975;48.046;7.804;2023-03-01T07:47:50;16.00;;;8.45;;
19653;SDS011;9975;48.046;7.804;2023-03-01T07:50:18;24.20;;;9.70;;
19653;SDS011;9975;48.046;7.804;2023-03-01T07:52:45;22.27;;;10.80;;
19653;SDS011;9975;48.046;7.804;2023-03-01T07:55:11;18.02;;;9.43;;
19653;SDS011;9975;48.046;7.804;2023-03-01T07:57:38;24.30;;;10.73;;
19653;SDS011;9975;48.046;7.804;2023-03-01T08:00:04;21.30;;;9.90;;
19653;SDS011;9975;48.046;7.804;2023-03-01T08:02:30;15.18;;;9.48;;
19653;SDS011;9975;48.046;7.804;2023-03-01T08:04:56;18.33;;;8.45;;
19653;SDS011;9975;48.046;7.804;2023-03-01T08:07:22;19.80;;;10.17;;
19653;SDS011;9975;48.046;7.804;2023-03-01T08:09:48;19.67;;;11.15;;
19653;SDS011;9975;48.046;7.804;2023-03-01T08:12:14;14.37;;;8.00;;
19653;SDS011;9975;48.046;7.804;2023-03-01T08:14:41;17.30;;;9.45;;
19653;SDS011;9975;48.046;7.804;2023-03-01T08:17:07;15.43;;;9.30;;
19653;SDS011;9975;48.046;7.804;2023-03-01T08:19:33;22.30;;;10.65;;
19653;SDS011;9975;48.046;7.804;2023-03-01T08:21:59;21.15;;;10.07;;
19653;SDS011;9975;48.046;7.804;2023-03-01T08:24:26;19.80;;;10.07;;
19653;SDS011;9975;48.046;7.804;2023-03-01T08:26:52;14.40;;;8.20;;
19653;SDS011;9975;48.046;7.804;2023-03-01T08:29:18;19.47;;;10.07;;
19653;SDS011;9975;48.046;7.804;2023-03-01T08:31:44;18.63;;;9.50;;
19653;SDS011;9975;48.046;7.804;2023-03-01T08:34:11;20.03;;;9.97;;
19653;SDS011;9975;48.046;7.804;2023-03-01T08:36:39;20.58;;;11.25;;
19653;SDS011;9975;48.046;7.804;2023-03-01T08:39:08;17.08;;;10.38;;
19653;SDS011;9975;48.046;7.804;2023-03-01T08:41:35;19.80;;;10.70;;
19653;SDS011;9975;48.046;7.804;2023-03-01T08:44:01;19.80;;;10.37;;
19653;SDS011;9975;48.046;7.804;2023-03-01T08:46:31;14.73;;;8.65;;
19653;SDS011;9975;48.046;7.804;2023-03-01T08:48:58;18.52;;;9.85;;
19653;SDS011;9975;48.046;7.804;2023-03-01T08:51:24;18.57;;;10.73;;
19653;SDS011;9975;48.046;7.804;2023-03-01T08:53:51;19.92;;;9.43;;
19653;SDS011;9975;48.046;7.804;2023-03-01T08:56:17;17.83;;;9.82;;
19653;SDS011;9975;48.046;7.804;2023-03-01T08:58:44;25.10;;;10.68;;
19653;SDS011;9975;48.046;7.804;2023-03-01T09:01:12;21.13;;;10.35;;
19653;SDS011;9975;48.046;7.804;2023-03-01T09:03:42;22.83;;;11.30;;
19653;SDS011;9975;48.046;7.804;2023-03-01T09:06:09;17.42;;;10.02;;
19653;SDS011;9975;48.046;7.804;2023-03-01T09:08:38;21.65;;;10.60;;
19653;SDS011;9975;48.046;7.804;2023-03-01T09:11:06;16.88;;;10.20;;
19653;SDS011;9975;48.046;7.804;2023-03-01T09:13:34;15.93;;;10.00;;
19653;SDS011;9975;48.046;7.804;2023-03-01T09:16:03;21.63;;;10.27;;
19653;SDS011;9975;48.046;7.804;2023-03-01T09:18:30;18.92;;;10.88;;
19653;SDS011;9975;48.046;7.804;2023-03-01T09:21:12;17.17;;;9.40;;
19653;SDS011;9975;48.046;7.804;2023-03-01T09:23:41;21.88;;;10.18;;
19653;SDS011;9975;48.046;7.804;2023-03-01T09:26:08;34.70;;;11.48;;
19653;SDS011;9975;48.046;7.804;2023-03-01T09:28:36;23.13;;;9.75;;
19653;SDS011;9975;48.046;7.804;2023-03-01T09:31:02;19.58;;;10.07;;
19653;SDS011;9975;48.046;7.804;2023-03-01T09:33:29;18.05;;;10.20;;
19653;SDS011;9975;48.046;7.804;2023-03-01T09:35:59;19.02;;;9.93;;
19653;SDS011;9975;48.046;7.804;2023-03-01T09:38:26;18.58;;;10.48;;
19653;SDS011;9975;48.046;7.804;2023-03-01T09:40:52;19.43;;;10.47;;
19653;SDS011;9975;48.046;7.804;2023-03-01T09:43:21;24.17;;;11.55;;
19653;SDS011;9975;48.046;7.804;2023-03-01T09:45:58;19.20;;;10.90;;
19653;SDS011;9975;48.046;7.804;2023-03-01T09:48:30;16.10;;;9.85;;
19653;SDS011;9975;48.046;7.804;2023-03-01T09:51:07;24.00;;;12.50;;
19653;SDS011;9975;48.046;7.804;2023-03-01T09:53:40;25.02;;;11.85;;
19653;SDS011;9975;48.046;7.804;2023-03-01T09:56:12;19.63;;;11.90;;
19653;SDS011;9975;48.046;7.804;2023-03-01T09:59:06;20.48;;;10.13;;
19653;SDS011;9975;48.046;7.804;2023-03-01T10:09:43;21.52;;;10.23;;
19653;SDS011;9975;48.046;7.804;2023-03-01T10:12:15;19.67;;;11.02;;
19653;SDS011;9975;48.046;7.804;2023-03-01T10:17:39;17.98;;;10.38;;
19653;SDS011;9975;48.046;7.804;2023-03-01T10:23:01;27.65;;;14.63;;
19653;SDS011;9975;48.046;7.804;2023-03-01T10:30:52;19.17;;;10.95;;
19653;SDS011;9975;48.046;7.804;2023-03-01T10:33:23;15.20;;;10.27;;
19653;SDS011;9975;48.046;7.804;2023-03-01T10:35:57;20.42;;;10.75;;
19653;SDS011;9975;48.046;7.804;2023-03-01T10:38:23;16.30;;;9.57;;
19653;SDS011;9975;48.046;7.804;2023-03-01T10:40:53;17.83;;;10.63;;
19653;SDS011;9975;48.046;7.804;2023-03-01T10:46:30;21.20;;;11.67;;
19653;SDS011;9975;48.046;7.804;2023-03-01T10:51:41;23.97;;;10.20;;
19653;SDS011;9975;48.046;7.804;2023-03-01T10:54:43;15.33;;;10.80;;
19653;SDS011;9975;48.046;7.804;2023-03-01T10:57:03;16.23;;;10.30;;
19653;SDS011;9975;48.046;7.804;2023-03-01T11:04:27;21.33;;;12.77;;
19653;SDS011;9975;48.046;7.804;2023-03-01T11:06:59;20.53;;;10.90;;
19653;SDS011;9975;48.046;7.804;2023-03-01T11:09:26;16.37;;;11.57;;
19653;SDS011;9975;48.046;7.804;2023-03-01T11:12:02;18.37;;;11.80;;
19653;SDS011;9975;48.046;7.804;2023-03-01T11:14:33;14.00;;;11.07;;
19653;SDS011;9975;48.046;7.804;2023-03-01T11:17:03;19.60;;;11.73;;
19653;SDS011;9975;48.046;7.804;2023-03-01T11:20:01;20.07;;;12.30;;
19653;SDS011;9975;48.046;7.804;2023-03-01T11:22:27;19.50;;;12.10;;
19653;SDS011;9975;48.046;7.804;2023-03-01T11:24:54;15.00;;;10.37;;
19653;SDS011;9975;48.046;7.804;2023-03-01T11:30:05;19.77;;;12.33;;
19653;SDS011;9975;48.046;7.804;2023-03-01T11:32:48;21.33;;;11.70;;
19653;SDS011;9975;48.046;7.804;2023-03-01T11:35:36;21.70;;;11.13;;
19653;SDS011;9975;48.046;7.804;2023-03-01T11:40:54;21.83;;;12.17;;
19653;SDS011;9975;48.046;7.804;2023-03-01T11:46:31;18.17;;;11.57;;
19653;SDS011;9975;48.046;7.804;2023-03-01T11:49:18;16.43;;;10.90;;
19653;SDS011;9975;48.046;7.804;2023-03-01T12:08:54;18.57;;;10.50;;
19653;SDS011;9975;48.046;7.804;2023-03-01T12:12:06;19.20;;;12.43;;
19653;SDS011;9975;48.046;7.804;2023-03-01T12:17:45;17.40;;;10.83;;
19653;SDS011;9975;48.046;7.804;2023-03-01T12:20:34;19.50;;;11.30;;
19653;SDS011;9975;48.046;7.804;2023-03-01T12:43:13;14.67;;;9.83;;
19653;SDS011;9975;48.046;7.804;2023-03-01T12:46:09;13.43;;;9.80;;
19653;SDS011;9975;48.046;7.804;2023-03-01T12:51:10;14.43;;;10.00;;
19653;SDS011;9975;48.046;7.804;2023-03-01T12:53:47;18.77;;;11.40;;
19653;SDS011;9975;48.046;7.804;2023-03-01T12:56:19;18.73;;;9.93;;
19653;SDS011;9975;48.046;7.804;2023-03-01T13:04:10;17.13;;;10.67;;
19653;SDS011;9975;48.046;7.804;2023-03-01T13:06:54;19.07;;;11.33;;
19653;SDS011;9975;48.046;7.804;2023-03-01T13:11:55;16.57;;;10.20;;
19653;SDS011;9975;48.046;7.804;2023-03-01T13:17:30;15.60;;;10.27;;
19653;SDS011;9975;48.046;7.804;2023-03-01T13:19:57;13.43;;;9.10;;
19653;SDS011;9975;48.046;7.804;2023-03-01T13:22:30;14.13;;;10.10;;
19653;SDS011;9975;48.046;7.804;2023-03-01T13:25:02;12.90;;;10.20;;
19653;SDS011;9975;48.046;7.804;2023-03-01T13:27:38;13.73;;;10.03;;
19653;SDS011;9975;48.046;7.804;2023-03-01T13:30:04;13.90;;;10.00;;
19653;SDS011;9975;48.046;7.804;2023-03-01T13:32:49;14.50;;;10.37;;
19653;SDS011;9975;48.046;7.804;2023-03-01T13:37:42;11.20;;;8.53;;
19653;SDS011;9975;48.046;7.804;2023-03-01T13:42:42;12.60;;;8.37;;
19653;SDS011;9975;48.046;7.804;2023-03-01T13:47:56;14.80;;;9.73;;
19653;SDS011;9975;48.046;7.804;2023-03-01T13:50:27;20.43;;;10.20;;
19653;SDS011;9975;48.046;7.804;2023-03-01T13:52:56;14.67;;;8.80;;
19653;SDS011;9975;48.046;7.804;2023-03-01T13:55:37;14.00;;;9.30;;
19653;SDS011;9975;48.046;7.804;2023-03-01T14:01:18;17.37;;;10.50;;
19653;SDS011;9975;48.046;7.804;2023-03-01T14:03:53;13.73;;;9.93;;
19653;SDS011;9975;48.046;7.804;2023-03-01T14:06:21;16.87;;;9.40;;
19653;SDS011;9975;48.046;7.804;2023-03-01T14:09:28;20.27;;;9.77;;
19653;SDS011;9975;48.046;7.804;2023-03-01T14:11:59;12.27;;;9.50;;
19653;SDS011;9975;48.046;7.804;2023-03-01T14:14:40;18.33;;;10.23;;
19653;SDS011;9975;48.046;7.804;2023-03-01T14:19:35;13.80;;;9.00;;
19653;SDS011;9975;48.046;7.804;2023-03-01T14:24:51;22.10;;;13.00;;
19653;SDS011;9975;48.046;7.804;2023-03-01T14:27:23;21.10;;;13.73;;
19653;SDS011;9975;48.046;7.804;2023-03-01T14:29:54;22.53;;;12.77;;
19653;SDS011;9975;48.046;7.804;2023-03-01T14:32:28;22.30;;;13.03;;
19653;SDS011;9975;48.046;7.804;2023-03-01T14:34:58;16.77;;;11.30;;
19653;SDS011;9975;48.046;7.804;2023-03-01T14:39:58;20.97;;;13.60;;
19653;SDS011;9975;48.046;7.804;2023-03-01T14:42:27;22.77;;;13.33;;
19653;SDS011;9975;48.046;7.804;2023-03-01T14:44:55;19.00;;;13.50;;
19653;SDS011;9975;48.046;7.804;2023-03-01T14:47:32;22.10;;;14.30;;
19653;SDS011;9975;48.046;7.804;2023-03-01T14:52:45;19.20;;;12.73;;
19653;SDS011;9975;48.046;7.804;2023-03-01T14:55:17;20.23;;;12.90;;
19653;SDS011;9975;48.046;7.804;2023-03-01T14:57:51;21.10;;;12.93;;
19653;SDS011;9975;48.046;7.804;2023-03-01T15:00:28;18.77;;;12.23;;
19653;SDS011;9975;48.046;7.804;2023-03-01T15:02:58;21.83;;;13.13;;
19653;SDS011;9975;48.046;7.804;2023-03-01T15:05:34;18.77;;;12.83;;
19653;SDS011;9975;48.046;7.804;2023-03-01T15:08:02;24.30;;;13.80;;
19653;SDS011;9975;48.046;7.804;2023-03-01T15:10:33;23.50;;;14.13;;
19653;SDS011;9975;48.046;7.804;2023-03-01T15:13:13;21.50;;;13.30;;
19653;SDS011;9975;48.046;7.804;2023-03-01T15:15:50;22.80;;;12.33;;
19653;SDS011;9975;48.046;7.804;2023-03-01T15:18:22;21.07;;;13.77;;
19653;SDS011;9975;48.046;7.804;2023-03-01T15:20:52;20.93;;;13.43;;
19653;SDS011;9975;48.046;7.804;2023-03-01T15:23:30;20.23;;;13.30;;
19653;SDS011;9975;48.046;7.804;2023-03-01T15:25:57;22.30;;;14.03;;
19653;SDS011;9975;48.046;7.804;2023-03-01T15:28:24;21.03;;;13.13;;
19653;SDS011;9975;48.046;7.804;2023-03-01T15:31:07;20.67;;;13.20;;
19653;SDS011;9975;48.046;7.804;2023-03-01T15:33:49;23.77;;;12.50;;
19653;SDS011;9975;48.046;7.804;2023-03-01T15:36:30;20.90;;;13.27;;
19653;SDS011;9975;48.046;7.804;2023-03-01T15:38:57;24.20;;;14.30;;
19653;SDS011;9975;48.046;7.804;2023-03-01T15:44:16;20.53;;;13.70;;
19653;SDS011;9975;48.046;7.804;2023-03-01T15:46:50;21.20;;;13.40;;
19653;SDS011;9975;48.046;7.804;2023-03-01T15:52:01;24.03;;;12.83;;
19653;SDS011;9975;48.046;7.804;2023-03-01T15:54:27;25.77;;;13.23;;
19653;SDS011;9975;48.046;7.804;2023-03-01T15:56:54;24.27;;;15.27;;
19653;SDS011;9975;48.046;7.804;2023-03-01T15:59:20;28.67;;;15.00;;
19653;SDS011;9975;48.046;7.804;2023-03-01T16:01:47;21.73;;;12.43;;
19653;SDS011;9975;48.046;7.804;2023-03-01T16:04:14;26.03;;;14.50;;
19653;SDS011;9975;48.046;7.804;2023-03-01T16:06:52;25.20;;;13.20;;
19653;SDS011;9975;48.046;7.804;2023-03-01T16:09:22;20.30;;;13.67;;
19653;SDS011;9975;48.046;7.804;2023-03-01T16:11:51;24.63;;;13.37;;
19653;SDS011;9975;48.046;7.804;2023-03-01T16:14:18;18.90;;;12.00;;
19653;SDS011;9975;48.046;7.804;2023-03-01T16:16:44;24.07;;;14.33;;
19653;SDS011;9975;48.046;7.804;2023-03-01T16:19:10;24.23;;;13.73;;
19653;SDS011;9975;48.046;7.804;2023-03-01T16:21:36;26.77;;;13.83;;
19653;SDS011;9975;48.046;7.804;2023-03-01T16:24:04;23.60;;;13.20;;
19653;SDS011;9975;48.046;7.804;2023-03-01T16:26:30;30.67;;;15.00;;
19653;SDS011;9975;48.046;7.804;2023-03-01T16:28:56;28.47;;;13.90;;
19653;SDS011;9975;48.046;7.804;2023-03-01T16:31:22;24.37;;;15.07;;
19653;SDS011;9975;48.046;7.804;2023-03-01T16:33:52;25.27;;;14.37;;
19653;SDS011;9975;48.046;7.804;2023-03-01T16:36:19;30.93;;;14.30;;
19653;SDS011;9975;48.046;7.804;2023-03-01T16:38:45;22.87;;;12.90;;
19653;SDS011;9975;48.046;7.804;2023-03-01T16:41:13;24.37;;;13.60;;
19653;SDS011;9975;48.046;7.804;2023-03-01T16:43:40;25.30;;;15.00;;
19653;SDS011;9975;48.046;7.804;2023-03-01T16:46:11;22.30;;;12.63;;
19653;SDS011;9975;48.046;7.804;2023-03-01T16:48:37;27.57;;;14.50;;
19653;SDS011;9975;48.046;7.804;2023-03-01T16:51:03;25.70;;;14.40;;
19653;SDS011;9975;48.046;7.804;2023-03-01T16:53:30;22.67;;;12.80;;
19653;SDS011;9975;48.046;7.804;2023-03-01T16:55:56;20.53;;;11.50;;
19653;SDS011;9975;48.046;7.804;2023-03-01T16:58:23;27.03;;;14.27;;
19653;SDS011;9975;48.046;7.804;2023-03-01T17:00:50;22.27;;;12.90;;
19653;SDS011;9975;48.046;7.804;2023-03-01T17:03:17;23.27;;;13.63;;
19653;SDS011;9975;48.046;7.804;2023-03-01T17:05:43;23.23;;;13.30;;
19653;SDS011;9975;48.046;7.804;2023-03-01T17:08:09;30.90;;;13.70;;
19653;SDS011;9975;48.046;7.804;2023-03-01T17:10:34;25.60;;;14.27;;
19653;SDS011;9975;48.046;7.804;2023-03-01T17:13:01;30.97;;;15.03;;
19653;SDS011;9975;48.046;7.804;2023-03-01T17:15:27;21.83;;;14.13;;
19653;SDS011;9975;48.046;7.804;2023-03-01T17:17:52;26.03;;;14.50;;
19653;SDS011;9975;48.046;7.804;2023-03-01T17:20:18;43.60;;;20.70;;
19653;SDS011;9975;48.046;7.804;2023-03-01T17:22:44;26.33;;;13.90;;
19653;SDS011;9975;48.046;7.804;2023-03-01T17:25:10;27.90;;;15.03;;
19653;SDS011;9975;48.046;7.804;2023-03-01T17:27:37;27.13;;;14.97;;
19653;SDS011;9975;48.046;7.804;2023-03-01T17:30:05;28.47;;;14.57;;
19653;SDS011;9975;48.046;7.804;2023-03-01T17:32:32;23.40;;;13.70;;
19653;SDS011;9975;48.046;7.804;2023-03-01T17:34:58;27.87;;;14.77;;
19653;SDS011;9975;48.046;7.804;2023-03-01T17:37:23;26.10;;;15.30;;
19653;SDS011;9975;48.046;7.804;2023-03-01T17:39:49;23.27;;;14.33;;
19653;SDS011;9975;48.046;7.804;2023-03-01T17:42:15;26.30;;;14.10;;
19653;SDS011;9975;48.046;7.804;2023-03-01T17:44:46;29.20;;;17.00;;
19653;SDS011;9975;48.046;7.804;2023-03-01T17:47:11;26.73;;;15.60;;
19653;SDS011;9975;48.046;7.804;2023-03-01T17:49:37;28.03;;;16.53;;
19653;SDS011;9975;48.046;7.804;2023-03-01T17:52:02;25.93;;;15.47;;
19653;SDS011;9975;48.046;7.804;2023-03-01T17:54:43;34.83;;;18.23;;
19653;SDS011;9975;48.046;7.804;2023-03-01T17:57:09;28.37;;;16.40;;
19653;SDS011;9975;48.046;7.804;2023-03-01T17:59:35;27.67;;;14.97;;
19653;SDS011;9975;48.046;7.804;2023-03-01T18:02:01;30.30;;;15.60;;
19653;SDS011;9975;48.046;7.804;2023-03-01T18:04:27;26.30;;;14.87;;
19653;SDS011;9975;48.046;7.804;2023-03-01T18:07:05;25.67;;;16.40;;
19653;SDS011;9975;48.046;7.804;2023-03-01T18:09:31;27.00;;;14.33;;
19653;SDS011;9975;48.046;7.804;2023-03-01T18:11:56;23.67;;;13.80;;
19653;SDS011;9975;48.046;7.804;2023-03-01T18:14:22;23.43;;;13.40;;
19653;SDS011;9975;48.046;7.804;2023-03-01T18:16:48;25.87;;;13.87;;
19653;SDS011;9975;48.046;7.804;2023-03-01T18:19:14;27.17;;;13.50;;
19653;SDS011;9975;48.046;7.804;2023-03-01T18:21:40;26.63;;;14.40;;
19653;SDS011;9975;48.046;7.804;2023-03-01T18:24:06;25.60;;;15.77;;
19653;SDS011;9975;48.046;7.804;2023-03-01T18:26:32;26.50;;;13.90;;
19653;SDS011;9975;48.046;7.804;2023-03-01T18:28:58;33.60;;;17.00;;
19653;SDS011;9975;48.046;7.804;2023-03-01T18:31:25;31.20;;;15.25;;
19653;SDS011;9975;48.046;7.804;2023-03-01T18:33:51;35.63;;;14.53;;
19653;SDS011;9975;48.046;7.804;2023-03-01T18:36:29;30.92;;;17.27;;
19653;SDS011;9975;48.046;7.804;2023-03-01T18:39:11;35.23;;;15.33;;
19653;SDS011;9975;48.046;7.804;2023-03-01T18:41:38;42.35;;;19.00;;
19653;SDS011;9975;48.046;7.804;2023-03-01T18:44:04;34.77;;;16.13;;
19653;SDS011;9975;48.046;7.804;2023-03-01T18:46:30;32.40;;;16.73;;
19653;SDS011;9975;48.046;7.804;2023-03-01T18:48:57;29.00;;;15.40;;
19653;SDS011;9975;48.046;7.804;2023-03-01T18:51:26;26.50;;;14.10;;
19653;SDS011;9975;48.046;7.804;2023-03-01T18:53:53;24.20;;;13.40;;